Teterboro, NJ (07608)

3:40 AM EDT on June 24, 2017 (GMT -0400)
Heights | | Change Station

Elev 149 ft 40.86 °N, 74.08 °W | Updated 48 seconds ago

Rain
Rain
72.0 °F
Feels Like 72.0 °F
N
2.0
Wind Variable Wind from SW
Gusts 4.0 mph

Today
High -- | Low -- °F
--% Chance of Precip.
Yesterday
High -- | Low -- °F
Precip. -- in
Pressure 29.59 in
Visibility 10.0 miles
Clouds Few 2600 ft
Mostly Cloudy 6000 ft
Overcast 10000 ft
Dew Point 70 °F
Humidity 93%
Rainfall 0.20 in
Snow Depth Not available.
5:25 AM 8:31 PM
New Moon, 0% visible
SPECI KTEB 240716Z 26005KT 10SM RA FEW026 BKN060 OVC100 23/22 A2959 RMK AO2 P0015 T02280217
Pressure 29.59 in
Visibility 10.0 miles
Clouds Few 2600 ft
Mostly Cloudy 6000 ft
Overcast 10000 ft
Dew Point 70 °F
Humidity 93%
Rainfall 0.20 in
Snow Depth Not available.
5:25 AM 8:31 PM
New Moon, 0% visible
SPECI KTEB 240716Z 26005KT 10SM RA FEW026 BKN060 OVC100 23/22 A2959 RMK AO2 P0015 T02280217

Get Severe Weather Alerts

Thanks for signing up!

Be on the lookout for a verification email in your inbox.

You'll start receiving the daily forecast at 6 AM.

×

10-Day Weather Forecast

Almanac

Astronomy

Jun. 24, 2017 Rise Set
Actual Time
Civil Twilight
Nautical Twilight
Astronomical Twilight
Moon
Length of Visible Light
Length of Day
Tomorrow will be .
, % of the Moon is Illuminated

Today's Extremes

State Highs State Lows

Community

WunderPhotos

Category 6

Welcome to Category 6. This is the collective home for Weather Underground's featured writeups by Dr. Jeff Masters (right), Bob Henson (left), Chris Burt, and other regular contributors.

Nearby

Air Quality

  Air Quality AQ Index Pollutant
Not available.

Snow Depth

Station Depth Elevation

Earthquake Activity

City Distance Mag. Time & Date
Minimum magnitude displayed is 2.5.

Coastal Water Temperatures

Place Temperature

Stations

Nearby Weather Stations

Station Location Temp. Windchill Dew Point Humidity Wind Precip. Elev Updated Type
                   

Watches & Warnings

There are currently no watches in effect.